Pagina principală
METAR-TAF:

METAR-TAF

Aeroporturi :

Vârșeț, Serbia

Latitudine: 45-09N, longitudine: 021-19E, elevație: 83 m

Observații meteo curente

Raportul a fost făcut în urmă cu 26 de minute, la 06:00 UTC
Vânt 3 kt de la Nord-est
Temperatură 11°C
Umiditate 100%
Presiune 1016 hPa
Vizibilitate: 8000 m

METAR: LYVR 220600Z 05003KT 8000 NSC 11/11 Q1016 NOSIG

Ora: 08:26 (06:26 UTC)

Prognoză

Raportul a fost făcut în urmă cu 1 oră și 26 de minute, la 05:00 UTC
Prognoză valabilă de la 22 ora 06 UTC la 23 ora 06 UTC
Vânt 2 kt din direcții variabile
Vizibilitate de 10 km sau mai mult
nu există nori sub 1.500 m și nici cumulonimbus
Devenind
de la 22 ora 15 UTC la 22 ora 18 UTC
Vânt 20 kt de la Sud-est cu rafale de până la 30 kt
Temporar
de la 23 ora 00 UTC la 23 ora 06 UTC
ploaie

TAF: LYVR 220500Z 2206/2306 VRB02KT CAVOK TX23/2212Z TN11/2306Z BECMG 2215/2218 13020G30KT TEMPO 2300/2306 RA

Observații și prognoze meteo pentru peste 4.000 de aeroporturi (rapoarte METAR și TAF).

Stațiile disponibile sunt reprezentate pe hartă prin puncte galbene și roșii.

Țineți indicatorul mouse-ului pe punctul dorit pentru a vedea denumirea stației.

Apoi, faceți clic pentru a vedea observațiile și prognozele meteorologice.

Pentru a schimba harta: Pentru mărire, faceți clic pe butoanele verzi cu cruce neagră; pentru micșorare, pe butonul verde cu o liniuță; pentru hărți învecinate, pe săgețile verzi.


METAR-TAF: